Impacts TAF Board
For situational awareness. Not to be used for flight planning purposes.
IDs:

KMSY - New Orleans/Armstron, LA, US

Issued at 0520 UTC 27 Sep 2020
Updated at 0809 UTC 27 Sep 2020
Potential Impact None Slight Moderate High
Time0753Z 27/09Z 27/10Z 27/11Z 27/12Z 27/13Z 27/14Z 27/15Z 27/16Z 27/17Z 27/18Z 27/19Z 27/20Z 27/21Z>>
Type OBS PRVL PRVL PRVL PRVL PRVL PRVL PRVL PRVL PRVL PRVL PRVL PRVL PRVL
VIS 9 >6 >6 >6 >6 >6 >6 >6 >6 >6 >6 >6 >6 >6
CIG -- -- -- -- -- -- -- -- -- -- -- -- -- --
Cover FEW SCT SCT SCT SCT SCT SCT SCT SCT SCT SCT SCT SCT SCT
FltCat VFR VFR VFR VFR VFR VFR VFR VFR VFR VFR VFR VFR VFR VFR
WX -- -- -- -- -- -- -- -- -- -- -- -- -- --
WDir VRB VRB VRB VRB VRB VRB VRB VRB 360 360 360 360 360 360
WSpd 0 0 0 0 0 0 0 0 5 5 5 5 5 5
WGst -- -- -- -- -- -- -- -- -- -- -- -- -- --
R01/19
XWnd VRB VRB VRB VRB VRB VRB VRB VRB 1 1 1 1 1 1
HWnd VRB VRB VRB VRB VRB VRB VRB VRB 5 5 5 5 5 5
R10/28
XWnd VRB VRB VRB VRB VRB VRB VRB VRB 5 5 5 5 5 5
HWnd VRB VRB VRB VRB VRB VRB VRB VRB -1 -1 -1 -1 -1 -1
Raw TAF
KMSY 270520Z 2706/2812 00000KT P6SM SCT030
  FM271600 36005KT P6SM FEW045 SCT250
  FM272300 32005KT P6SM FEW050 FEW250
  FM280200 VRB04KT P6SM FEW250


Raw METAR
KMSY 270753Z 00000KT 9SM FEW027 23/21 A2990 RMK AO2 SLP129 T02280211 $
KMSY 270653Z 19004KT 10SM CLR 24/22 A2991 RMK AO2 SLP133 T02390217 $
KMSY 270553Z 15005KT 10SM SCT031 24/22 A2993 RMK AO2 SLP137 T02440222 10272 20244 402890228 51002 $

METAR Board
Radar Display
Forecast Discussion
For situational awareness. Not to be used for flight planning purposes.